Time;durP1;ratioP1;P1;durP2;ratioP2;P2;SDS_P1;SDS_P2;PMS_P1;PMS_P2;Temp;Humidity;BMP_temperature;BMP_pressure;BME280_temperature;BME280_humidity;BME280_pressure;Samples;Min_cycle;Max_cycle;Signal;HPM_P1;HPM_P2
2022/10/09 00:02:17;;;;;;;;;;;18.00;66.80;;;;;;5033745;27;90161;-53
2022/10/09 00:04:42;;;;;;;;;;;18.00;66.70;;;;;;5042595;27;90576;-51
2022/10/09 00:07:08;;;;;;;;;;;18.00;66.50;;;;;;5044186;27;91096;-51
2022/10/09 00:09:33;;;;;;;;;;;18.00;66.60;;;;;;5051103;27;89884;-51
2022/10/09 00:11:59;;;;;;;;;;;18.00;66.70;;;;;;5050093;27;89846;-50
2022/10/09 00:14:24;;;;;;;;;;;18.00;66.70;;;;;;5050092;27;89722;-50
2022/10/09 00:16:50;;;;;;;;;;;18.00;66.70;;;;;;5043059;27;91370;-53
2022/10/09 00:19:15;;;;;;;;;;;17.90;66.60;;;;;;5049729;27;91676;-53
2022/10/09 00:21:41;;;;;;;;;;;17.90;66.60;;;;;;5053550;27;92151;-53
2022/10/09 00:24:06;;;;;;;;;;;18.00;66.40;;;;;;5043977;27;91751;-51
2022/10/09 00:26:32;;;;;;;;;;;17.90;66.50;;;;;;5026319;27;90689;-51
2022/10/09 00:28:58;;;;;;;;;;;17.90;66.50;;;;;;5033618;27;91464;-53
2022/10/09 00:31:23;;;;;;;;;;;17.90;66.60;;;;;;5029215;27;89792;-52
2022/10/09 00:33:49;;;;;;;;;;;17.90;66.70;;;;;;5022868;27;91370;-48
2022/10/09 00:36:16;;;;;;;;;;;17.90;66.60;;;;;;5028037;27;92391;-49
2022/10/09 00:38:42;;;;;;;;;;;17.90;66.40;;;;;;5011065;27;90161;-49
2022/10/09 00:41:09;;;;;;;;;;;17.80;66.60;;;;;;5026892;27;91240;-51
2022/10/09 00:43:37;;;;;;;;;;;17.90;66.40;;;;;;5018559;27;89919;-50
2022/10/09 00:46:03;;;;;;;;;;;17.90;66.40;;;;;;5022888;27;89933;-51
2022/10/09 00:48:29;;;;;;;;;;;17.80;66.50;;;;;;5020216;27;91410;-53
2022/10/09 00:50:56;;;;;;;;;;;17.80;66.40;;;;;;5010781;27;90201;-50
2022/10/09 00:53:23;;;;;;;;;;;17.70;66.50;;;;;;5022692;27;92170;-51
2022/10/09 00:55:49;;;;;;;;;;;17.80;66.50;;;;;;5022780;27;89991;-51
2022/10/09 00:58:15;;;;;;;;;;;17.80;66.50;;;;;;5023160;27;90041;-52
2022/10/09 01:00:40;;;;;;;;;;;17.70;66.50;;;;;;5028133;27;90481;-53
2022/10/09 01:03:06;;;;;;;;;;;17.70;66.60;;;;;;5023608;27;90376;-51
2022/10/09 01:05:50;;;;;;;;;;;17.70;66.50;;;;;;5029153;27;89259;-52
2022/10/09 01:08:15;;;;;;;;;;;17.80;66.40;;;;;;5033599;27;89866;-50
2022/10/09 01:10:43;;;;;;;;;;;17.70;66.30;;;;;;5025731;27;97126;-50
2022/10/09 01:13:13;;;;;;;;;;;17.70;66.40;;;;;;5032712;27;90922;-49
2022/10/09 01:15:45;;;;;;;;;;;17.70;66.50;;;;;;5016024;27;91114;-52
2022/10/09 01:18:10;;;;;;;;;;;17.70;66.50;;;;;;5030632;27;90004;-50
2022/10/09 01:21:08;;;;;;;;;;;17.70;66.40;;;;;;5011310;27;93195;-52
2022/10/09 01:24:00;;;;;;;;;;;17.70;66.50;;;;;;4974825;27;89998;-54
2022/10/09 01:26:26;;;;;;;;;;;17.60;66.50;;;;;;4991884;27;90151;-49
2022/10/09 01:28:55;;;;;;;;;;;17.60;66.30;;;;;;5026587;27;89810;-52
2022/10/09 01:31:22;;;;;;;;;;;17.60;66.40;;;;;;5038625;27;89157;-47
2022/10/09 01:33:48;;;;;;;;;;;17.60;66.40;;;;;;5006177;27;92013;-52
2022/10/09 01:36:15;;;;;;;;;;;17.60;66.40;;;;;;5032400;27;89525;-52
2022/10/09 01:38:41;;;;;;;;;;;17.70;66.40;;;;;;5024671;27;90881;-51
2022/10/09 01:41:07;;;;;;;;;;;17.70;66.00;;;;;;5018347;27;91619;-47
2022/10/09 01:43:33;;;;;;;;;;;17.60;66.00;;;;;;5025354;27;89449;-55
2022/10/09 01:46:17;;;;;;;;;;;17.60;66.10;;;;;;5021846;27;95477;-49
2022/10/09 01:48:44;;;;;;;;;;;17.60;66.30;;;;;;5023686;27;89884;-50
2022/10/09 01:51:10;;;;;;;;;;;17.60;66.10;;;;;;5024168;27;89875;-47
2022/10/09 01:53:35;;;;;;;;;;;17.50;66.40;;;;;;5021832;27;90024;-53
2022/10/09 01:56:04;;;;;;;;;;;17.50;66.40;;;;;;5024465;27;89975;-51
2022/10/09 01:58:32;;;;;;;;;;;17.50;66.40;;;;;;5026153;27;90540;-50
2022/10/09 02:01:04;;;;;;;;;;;17.50;66.20;;;;;;5020982;27;92871;-47
2022/10/09 02:03:30;;;;;;;;;;;17.50;66.20;;;;;;5029808;27;91130;-48
2022/10/09 02:05:57;;;;;;;;;;;17.50;66.20;;;;;;5025769;27;90569;-51
2022/10/09 02:08:23;;;;;;;;;;;17.50;66.10;;;;;;5026434;27;89939;-49
2022/10/09 02:10:51;;;;;;;;;;;17.50;66.40;;;;;;5020096;27;90444;-48
2022/10/09 02:13:17;;;;;;;;;;;17.50;66.10;;;;;;5030146;27;89900;-50
2022/10/09 02:15:47;;;;;;;;;;;17.50;66.20;;;;;;5029005;27;90255;-48
2022/10/09 02:18:14;;;;;;;;;;;17.50;66.30;;;;;;5024661;27;89818;-50
2022/10/09 02:20:43;;;;;;;;;;;17.50;66.10;;;;;;5028966;27;89003;-48
2022/10/09 02:23:10;;;;;;;;;;;17.50;65.90;;;;;;5028644;27;91088;-47
2022/10/09 02:25:35;;;;;;;;;;;17.50;66.00;;;;;;5036417;27;90307;-48
2022/10/09 02:28:02;;;;;;;;;;;17.50;66.00;;;;;;5055728;27;90461;-51
2022/10/09 02:30:33;;;;;;;;;;;17.40;66.00;;;;;;5047836;27;90099;-47
2022/10/09 02:32:58;;;;;;;;;;;17.40;66.90;;;;;;5042203;27;90296;-49
2022/10/09 02:35:24;;;;;;;;;;;17.40;66.20;;;;;;5051889;27;89536;-49
2022/10/09 02:37:50;;;;;;;;;;;17.40;66.00;;;;;;5053741;27;89798;-52
2022/10/09 02:40:15;;;;;;;;;;;17.40;65.90;;;;;;5041682;27;89967;-51
2022/10/09 02:42:41;;;;;;;;;;;17.30;66.10;;;;;;5050621;27;89636;-53
2022/10/09 02:45:07;;;;;;;;;;;17.30;66.30;;;;;;5043317;27;89073;-47
2022/10/09 02:47:32;;;;;;;;;;;17.40;66.30;;;;;;5052410;27;89239;-51
2022/10/09 02:49:58;;;;;;;;;;;17.40;66.00;;;;;;5044526;27;90058;-49
2022/10/09 02:52:23;;;;;;;;;;;17.30;65.90;;;;;;5054622;27;90717;-50
2022/10/09 02:54:49;;;;;;;;;;;17.30;66.30;;;;;;5038372;27;96336;-54
2022/10/09 02:57:14;;;;;;;;;;;17.30;66.20;;;;;;5042165;27;90497;-49
2022/10/09 02:59:40;;;;;;;;;;;17.30;66.10;;;;;;5058433;27;89917;-50
2022/10/09 03:02:06;;;;;;;;;;;17.30;65.90;;;;;;5050645;27;90168;-51
2022/10/09 03:04:31;;;;;;;;;;;17.30;65.60;;;;;;5038565;27;90841;-50
2022/10/09 03:06:57;;;;;;;;;;;17.30;65.90;;;;;;5044212;27;90812;-52
2022/10/09 03:09:22;;;;;;;;;;;17.30;65.80;;;;;;5054012;27;92122;-52
2022/10/09 03:11:48;;;;;;;;;;;17.30;65.80;;;;;;5049933;27;90073;-52
2022/10/09 03:14:13;;;;;;;;;;;17.30;65.70;;;;;;5044444;27;90324;-51
2022/10/09 03:16:39;;;;;;;;;;;17.20;65.70;;;;;;5053873;27;90659;-50
2022/10/09 03:19:04;;;;;;;;;;;17.30;65.80;;;;;;5051821;27;89533;-51
2022/10/09 03:21:30;;;;;;;;;;;17.30;65.80;;;;;;5047126;27;89899;-50
2022/10/09 03:23:55;;;;;;;;;;;17.20;65.80;;;;;;5057070;27;89959;-51
2022/10/09 03:26:25;;;;;;;;;;;17.20;65.90;;;;;;5052275;27;89971;-53
2022/10/09 03:28:51;;;;;;;;;;;17.20;66.60;;;;;;5053195;27;90351;-52
2022/10/09 03:31:18;;;;;;;;;;;17.20;65.60;;;;;;5038789;27;92363;-52
2022/10/09 03:33:44;;;;;;;;;;;17.20;65.70;;;;;;5045838;27;89450;-51
2022/10/09 03:36:09;;;;;;;;;;;17.20;65.80;;;;;;5049350;27;90345;-51
2022/10/09 03:38:35;;;;;;;;;;;17.20;65.80;;;;;;5047633;27;89454;-49
2022/10/09 03:41:01;;;;;;;;;;;17.10;65.90;;;;;;5035874;27;90926;-52
2022/10/09 03:43:27;;;;;;;;;;;17.20;65.70;;;;;;5050113;27;93884;-52
2022/10/09 03:45:53;;;;;;;;;;;17.10;65.90;;;;;;5045613;27;89811;-46
2022/10/09 03:48:19;;;;;;;;;;;17.20;65.90;;;;;;5042395;27;90789;-51
2022/10/09 03:50:44;;;;;;;;;;;17.10;65.60;;;;;;5046740;27;89768;-48
2022/10/09 03:53:10;;;;;;;;;;;17.20;65.70;;;;;;5046192;27;91277;-49
2022/10/09 03:55:36;;;;;;;;;;;17.10;65.50;;;;;;5055866;27;90898;-51
2022/10/09 03:58:02;;;;;;;;;;;17.10;65.60;;;;;;5032558;27;89568;-51
2022/10/09 04:00:27;;;;;;;;;;;17.10;65.90;;;;;;5044860;27;90603;-50
2022/10/09 04:02:53;;;;;;;;;;;17.10;65.70;;;;;;5054394;27;89559;-48
2022/10/09 04:05:18;;;;;;;;;;;17.00;65.90;;;;;;5040819;27;91088;-47
2022/10/09 04:07:44;;;;;;;;;;;17.00;65.80;;;;;;5033173;27;92947;-49
2022/10/09 04:10:10;;;;;;;;;;;17.00;65.90;;;;;;5041186;27;90340;-50
2022/10/09 04:12:35;;;;;;;;;;;17.10;65.60;;;;;;5052151;27;89944;-49
2022/10/09 04:15:01;;;;;;;;;;;17.00;65.70;;;;;;5052931;27;89541;-47
2022/10/09 04:17:26;;;;;;;;;;;17.00;65.90;;;;;;5043422;27;90011;-48
2022/10/09 04:19:52;;;;;;;;;;;17.00;65.90;;;;;;5056719;27;90304;-53
2022/10/09 04:22:17;;;;;;;;;;;17.00;65.90;;;;;;5050944;27;89489;-50
2022/10/09 04:24:43;;;;;;;;;;;16.90;65.80;;;;;;5045719;27;89541;-51
2022/10/09 04:27:08;;;;;;;;;;;17.00;65.80;;;;;;5043975;27;91476;-49
2022/10/09 04:29:34;;;;;;;;;;;17.00;65.50;;;;;;5049454;27;90745;-48
2022/10/09 04:31:59;;;;;;;;;;;17.00;65.70;;;;;;5043070;27;90098;-48
2022/10/09 04:34:25;;;;;;;;;;;17.00;65.70;;;;;;5049067;27;89475;-49
2022/10/09 04:36:50;;;;;;;;;;;17.00;65.60;;;;;;5048925;27;89907;-51
2022/10/09 04:39:16;;;;;;;;;;;16.90;65.60;;;;;;5051298;27;90355;-49
2022/10/09 04:41:41;;;;;;;;;;;16.90;65.70;;;;;;5045666;27;90162;-47
2022/10/09 04:44:07;;;;;;;;;;;16.90;65.60;;;;;;5048366;27;90595;-49
2022/10/09 04:46:33;;;;;;;;;;;16.90;65.60;;;;;;5052288;27;90387;-51
2022/10/09 04:48:58;;;;;;;;;;;16.90;65.90;;;;;;5050330;27;90093;-51
2022/10/09 04:51:24;;;;;;;;;;;16.90;65.60;;;;;;5049899;27;89503;-50
2022/10/09 04:53:49;;;;;;;;;;;16.90;65.60;;;;;;5038987;27;92201;-48
2022/10/09 04:56:16;;;;;;;;;;;16.80;65.50;;;;;;5035576;27;90129;-50
2022/10/09 04:58:42;;;;;;;;;;;16.90;66.40;;;;;;5041416;27;90204;-48
2022/10/09 05:01:10;;;;;;;;;;;16.90;65.60;;;;;;5046711;27;92512;-49
2022/10/09 05:03:36;;;;;;;;;;;16.90;65.70;;;;;;5043958;27;89833;-48
2022/10/09 05:06:03;;;;;;;;;;;16.90;65.60;;;;;;5049800;27;90240;-50
2022/10/09 05:08:29;;;;;;;;;;;16.80;65.50;;;;;;5041478;27;91387;-48
2022/10/09 05:10:58;;;;;;;;;;;16.90;66.50;;;;;;5052764;27;89825;-51
2022/10/09 05:13:24;;;;;;;;;;;16.80;65.70;;;;;;5047020;27;91377;-51
2022/10/09 05:15:49;;;;;;;;;;;16.80;65.70;;;;;;5052879;27;90615;-48
2022/10/09 05:18:15;;;;;;;;;;;16.80;65.60;;;;;;5054278;27;91101;-47
2022/10/09 05:20:40;;;;;;;;;;;16.80;65.40;;;;;;5044277;27;91599;-50
2022/10/09 05:23:06;;;;;;;;;;;16.80;65.50;;;;;;5047505;27;89541;-51
2022/10/09 05:25:31;;;;;;;;;;;16.80;66.40;;;;;;5056534;27;89898;-50
2022/10/09 05:27:59;;;;;;;;;;;16.70;65.70;;;;;;5048498;27;90839;-50
2022/10/09 05:30:24;;;;;;;;;;;16.80;65.70;;;;;;5048655;27;89707;-51
2022/10/09 05:32:50;;;;;;;;;;;16.70;65.70;;;;;;5051051;27;89896;-50
2022/10/09 05:35:15;;;;;;;;;;;16.70;65.60;;;;;;5052043;27;89118;-49
2022/10/09 05:37:43;;;;;;;;;;;16.80;65.50;;;;;;5051054;27;90388;-51
2022/10/09 05:40:08;;;;;;;;;;;16.80;65.40;;;;;;5046538;27;94459;-49
2022/10/09 05:42:34;;;;;;;;;;;16.70;65.50;;;;;;5052750;27;90754;-48
2022/10/09 05:44:59;;;;;;;;;;;16.80;65.40;;;;;;5048805;27;89503;-50
2022/10/09 05:47:25;;;;;;;;;;;16.70;65.40;;;;;;5058958;27;89935;-51
2022/10/09 05:49:50;;;;;;;;;;;16.70;65.50;;;;;;5048121;27;91035;-49
2022/10/09 05:52:16;;;;;;;;;;;16.70;65.80;;;;;;5047283;27;97127;-49
2022/10/09 05:54:41;;;;;;;;;;;16.70;65.50;;;;;;5041183;27;92119;-48
2022/10/09 05:57:07;;;;;;;;;;;16.70;65.50;;;;;;5036218;27;91580;-48
2022/10/09 05:59:33;;;;;;;;;;;16.70;65.70;;;;;;5049922;27;89696;-47
2022/10/09 06:01:59;;;;;;;;;;;16.70;65.80;;;;;;5049220;27;91906;-52
2022/10/09 06:04:25;;;;;;;;;;;16.70;65.40;;;;;;5039531;27;89928;-48
2022/10/09 06:06:50;;;;;;;;;;;16.70;65.30;;;;;;5050582;27;92320;-47
2022/10/09 06:09:17;;;;;;;;;;;16.70;65.30;;;;;;5052708;27;91909;-47
2022/10/09 06:11:42;;;;;;;;;;;16.70;66.20;;;;;;5046870;27;89880;-47
2022/10/09 06:14:09;;;;;;;;;;;16.70;65.30;;;;;;5051775;27;91054;-53
2022/10/09 06:16:39;;;;;;;;;;;16.70;65.20;;;;;;5041987;27;90885;-51
2022/10/09 06:19:05;;;;;;;;;;;16.70;65.40;;;;;;5055013;27;90224;-47
2022/10/09 06:21:31;;;;;;;;;;;16.70;65.30;;;;;;5026538;27;90598;-49
2022/10/09 06:23:58;;;;;;;;;;;16.70;65.30;;;;;;5042367;27;89064;-50
2022/10/09 06:26:24;;;;;;;;;;;16.70;65.30;;;;;;5044133;27;91922;-52
2022/10/09 06:28:50;;;;;;;;;;;16.70;65.30;;;;;;5052537;27;92667;-49
2022/10/09 06:31:17;;;;;;;;;;;16.70;65.00;;;;;;5047909;27;90662;-48
2022/10/09 06:33:43;;;;;;;;;;;16.70;65.10;;;;;;5052844;27;89643;-50
2022/10/09 06:36:13;;;;;;;;;;;16.70;64.90;;;;;;5029409;27;91313;-50
2022/10/09 06:38:39;;;;;;;;;;;16.70;65.00;;;;;;5049629;27;90594;-48
2022/10/09 06:41:09;;;;;;;;;;;16.70;64.90;;;;;;5025374;27;90021;-49
2022/10/09 06:43:35;;;;;;;;;;;16.80;65.00;;;;;;5052662;27;89848;-49
2022/10/09 06:46:05;;;;;;;;;;;16.80;64.90;;;;;;5046794;27;90102;-48
2022/10/09 06:48:31;;;;;;;;;;;16.80;64.90;;;;;;5061095;27;89117;-48
2022/10/09 06:51:20;;;;;;;;;;;16.80;64.90;;;;;;5044512;27;91915;-48
2022/10/09 06:53:47;;;;;;;;;;;16.80;64.80;;;;;;5029881;27;90456;-50
2022/10/09 06:56:13;;;;;;;;;;;16.80;64.70;;;;;;5034465;27;91755;-49
2022/10/09 06:58:39;;;;;;;;;;;16.90;64.50;;;;;;5036861;27;91527;-49
2022/10/09 07:01:05;;;;;;;;;;;16.90;64.70;;;;;;5051170;27;91225;-51
2022/10/09 07:03:30;;;;;;;;;;;16.90;64.60;;;;;;5052032;27;90589;-50
2022/10/09 07:06:09;;;;;;;;;;;16.80;64.70;;;;;;5043578;27;92534;-50
2022/10/09 07:08:35;;;;;;;;;;;16.90;64.50;;;;;;5053310;27;90202;-54
2022/10/09 07:11:11;;;;;;;;;;;16.90;64.60;;;;;;5046190;27;89582;-51
2022/10/09 07:13:37;;;;;;;;;;;16.90;64.60;;;;;;5054131;27;91100;-52
2022/10/09 07:16:02;;;;;;;;;;;17.00;64.20;;;;;;5049032;27;91045;-48
2022/10/09 07:18:28;;;;;;;;;;;17.00;64.20;;;;;;5048384;27;91251;-51
2022/10/09 07:20:53;;;;;;;;;;;17.10;64.20;;;;;;5052165;27;91230;-50
2022/10/09 07:23:19;;;;;;;;;;;17.10;64.10;;;;;;5038371;27;92773;-53
2022/10/09 07:25:44;;;;;;;;;;;17.10;64.40;;;;;;5040743;27;94521;-48
2022/10/09 07:28:10;;;;;;;;;;;17.20;63.50;;;;;;5049254;27;90162;-53
2022/10/09 07:30:38;;;;;;;;;;;17.20;63.80;;;;;;5052974;27;91375;-47
2022/10/09 07:33:04;;;;;;;;;;;17.20;63.60;;;;;;5040724;27;89930;-50
2022/10/09 07:35:29;;;;;;;;;;;17.20;63.70;;;;;;5040851;27;89593;-49
2022/10/09 07:37:55;;;;;;;;;;;17.30;63.30;;;;;;5051760;27;89606;-51
2022/10/09 07:40:20;;;;;;;;;;;17.30;63.20;;;;;;5052063;27;89897;-53
2022/10/09 07:42:46;;;;;;;;;;;17.40;63.60;;;;;;5044192;27;94114;-52
2022/10/09 07:45:11;;;;;;;;;;;17.50;62.80;;;;;;5042700;27;90959;-49
2022/10/09 07:47:37;;;;;;;;;;;17.60;62.30;;;;;;5057349;27;92809;-53
2022/10/09 07:50:02;;;;;;;;;;;17.50;62.60;;;;;;5047454;27;90909;-51
2022/10/09 07:52:28;;;;;;;;;;;17.60;62.20;;;;;;5047057;27;90033;-52
2022/10/09 07:54:53;;;;;;;;;;;17.70;62.30;;;;;;5048969;27;93359;-50
2022/10/09 07:57:19;;;;;;;;;;;17.70;62.20;;;;;;5051249;27;91647;-54
2022/10/09 07:59:44;;;;;;;;;;;17.80;61.70;;;;;;5054114;27;89522;-51
2022/10/09 08:02:10;;;;;;;;;;;17.90;61.70;;;;;;5050543;27;94797;-51
2022/10/09 08:04:36;;;;;;;;;;;17.90;61.60;;;;;;5049132;27;93253;-52
2022/10/09 08:07:01;;;;;;;;;;;17.90;61.40;;;;;;5049996;27;89849;-53
2022/10/09 08:09:27;;;;;;;;;;;18.00;61.60;;;;;;5048755;27;90973;-49
2022/10/09 08:11:52;;;;;;;;;;;18.00;61.50;;;;;;5047905;27;90001;-51
2022/10/09 08:14:18;;;;;;;;;;;17.90;61.50;;;;;;5045079;27;91304;-51
2022/10/09 08:16:43;;;;;;;;;;;17.80;61.90;;;;;;5047486;27;90008;-47
2022/10/09 08:19:09;;;;;;;;;;;17.80;62.20;;;;;;5043197;27;90090;-51
2022/10/09 08:21:34;;;;;;;;;;;17.70;62.40;;;;;;5053792;27;89536;-49
2022/10/09 08:24:00;;;;;;;;;;;17.70;62.80;;;;;;5051583;27;90913;-48
2022/10/09 08:26:27;;;;;;;;;;;17.70;62.80;;;;;;5052330;27;93468;-51
2022/10/09 08:28:54;;;;;;;;;;;17.60;63.10;;;;;;5048190;27;89831;-47
2022/10/09 08:31:20;;;;;;;;;;;17.70;63.10;;;;;;5046990;27;89828;-49
2022/10/09 08:33:46;;;;;;;;;;;17.70;63.20;;;;;;5036828;27;92041;-53
2022/10/09 08:36:14;;;;;;;;;;;17.70;62.90;;;;;;5047721;27;90563;-50
2022/10/09 08:38:39;;;;;;;;;;;17.70;63.30;;;;;;5051146;27;89956;-49
2022/10/09 08:41:12;;;;;;;;;;;17.80;63.20;;;;;;5045136;27;90396;-49
2022/10/09 08:43:40;;;;;;;;;;;17.80;63.30;;;;;;5046367;27;90103;-50
2022/10/09 08:46:11;;;;;;;;;;;17.70;63.70;;;;;;5044086;27;89820;-49
2022/10/09 08:48:40;;;;;;;;;;;17.70;64.20;;;;;;5044332;27;91802;-49
2022/10/09 08:51:08;;;;;;;;;;;17.60;64.50;;;;;;5039045;27;90524;-47
2022/10/09 08:53:49;;;;;;;;;;;17.70;64.60;;;;;;5039705;27;90147;-48
2022/10/09 08:56:14;;;;;;;;;;;17.80;64.60;;;;;;5040501;27;92177;-49
2022/10/09 08:58:41;;;;;;;;;;;17.80;64.70;;;;;;5039634;27;90554;-49
2022/10/09 09:01:07;;;;;;;;;;;17.80;64.70;;;;;;5055239;27;90293;-46
2022/10/09 09:03:42;;;;;;;;;;;17.70;64.60;;;;;;5051040;27;90476;-52
2022/10/09 09:06:21;;;;;;;;;;;17.70;64.90;;;;;;5031233;27;89973;-50
2022/10/09 09:08:49;;;;;;;;;;;17.70;65.10;;;;;;5036081;27;92496;-53
2022/10/09 09:11:35;;;;;;;;;;;17.80;65.00;;;;;;5027684;27;90301;-53
2022/10/09 09:14:26;;;;;;;;;;;17.90;65.30;;;;;;4983222;27;91439;-53
2022/10/09 09:17:07;;;;;;;;;;;18.10;65.10;;;;;;5022624;27;89450;-52
2022/10/09 09:19:39;;;;;;;;;;;18.20;65.00;;;;;;5045888;27;90255;-51
2022/10/09 09:22:08;;;;;;;;;;;18.30;65.30;;;;;;5037832;27;91188;-51
2022/10/09 09:24:41;;;;;;;;;;;18.30;65.30;;;;;;5046629;27;93976;-53
2022/10/09 09:27:11;;;;;;;;;;;18.30;64.60;;;;;;5042069;27;93180;-50
2022/10/09 09:29:43;;;;;;;;;;;18.30;64.60;;;;;;5044261;27;90073;-50
2022/10/09 09:32:15;;;;;;;;;;;18.30;64.80;;;;;;5043552;27;89605;-48
2022/10/09 09:34:40;;;;;;;;;;;18.30;64.70;;;;;;5046303;27;90159;-50
2022/10/09 09:37:08;;;;;;;;;;;18.20;64.80;;;;;;5039052;27;90249;-49
2022/10/09 09:39:34;;;;;;;;;;;18.20;64.50;;;;;;5044136;27;89853;-49
2022/10/09 09:42:06;;;;;;;;;;;18.20;64.90;;;;;;5037406;27;89192;-58
2022/10/09 09:44:32;;;;;;;;;;;18.20;65.10;;;;;;5055299;27;90894;-56
2022/10/09 09:46:58;;;;;;;;;;;18.30;65.40;;;;;;5030208;27;89540;-56
2022/10/09 09:49:27;;;;;;;;;;;18.40;65.30;;;;;;5045768;27;92301;-52
2022/10/09 09:51:57;;;;;;;;;;;18.50;65.50;;;;;;5041025;27;90036;-53
2022/10/09 09:54:27;;;;;;;;;;;18.50;65.20;;;;;;5037040;27;90896;-51
2022/10/09 09:56:55;;;;;;;;;;;18.40;65.10;;;;;;5040775;27;90174;-53
2022/10/09 09:59:40;;;;;;;;;;;18.40;65.10;;;;;;5039619;27;93829;-54
2022/10/09 10:02:31;;;;;;;;;;;18.50;65.30;;;;;;5039821;27;90438;-51
2022/10/09 10:05:00;;;;;;;;;;;18.40;65.30;;;;;;5028400;27;91652;-53
2022/10/09 10:07:29;;;;;;;;;;;18.40;65.40;;;;;;5035109;27;89178;-54
2022/10/09 10:10:06;;;;;;;;;;;18.40;65.70;;;;;;5041819;27;89454;-52
2022/10/09 10:12:32;;;;;;;;;;;18.40;65.60;;;;;;5043848;27;90036;-50
2022/10/09 10:14:58;;;;;;;;;;;18.50;66.00;;;;;;5018046;27;90847;-50
2022/10/09 10:17:27;;;;;;;;;;;18.50;66.10;;;;;;5053227;27;90020;-51
2022/10/09 10:19:53;;;;;;;;;;;18.50;66.20;;;;;;5042061;27;90262;-51
2022/10/09 10:22:23;;;;;;;;;;;18.50;66.20;;;;;;5047394;27;91391;-53
2022/10/09 10:24:49;;;;;;;;;;;18.50;66.50;;;;;;5041676;27;89720;-51
2022/10/09 10:27:33;;;;;;;;;;;18.50;66.60;;;;;;5039925;27;90174;-53
2022/10/09 10:30:01;;;;;;;;;;;18.50;66.80;;;;;;5044320;27;90267;-52
2022/10/09 10:32:46;;;;;;;;;;;18.50;67.00;;;;;;5042790;27;89227;-52
2022/10/09 10:35:13;;;;;;;;;;;18.60;67.10;;;;;;5047455;27;90173;-55
2022/10/09 10:37:39;;;;;;;;;;;18.60;67.30;;;;;;5047939;27;89875;-54
2022/10/09 10:40:11;;;;;;;;;;;18.60;67.50;;;;;;5044937;27;91046;-51
2022/10/09 10:42:46;;;;;;;;;;;18.60;68.20;;;;;;5023801;27;91401;-52
2022/10/09 10:45:19;;;;;;;;;;;18.60;69.30;;;;;;5047720;27;90281;-52
2022/10/09 10:47:48;;;;;;;;;;;18.60;70.10;;;;;;5055303;27;90462;-53
2022/10/09 10:50:14;;;;;;;;;;;18.60;69.90;;;;;;5046804;27;94983;-54
2022/10/09 10:53:15;;;;;;;;;;;18.60;70.10;;;;;;5046899;27;91791;-54
2022/10/09 10:55:41;;;;;;;;;;;18.60;70.90;;;;;;4956154;28;92852;-52
2022/10/09 10:58:21;;;;;;;;;;;18.60;71.20;;;;;;5013596;27;89652;-51
2022/10/09 11:00:55;;;;;;;;;;;18.70;71.50;;;;;;5046495;27;90363;-50
2022/10/09 11:03:21;;;;;;;;;;;18.70;71.30;;;;;;5044423;27;89972;-48
2022/10/09 11:05:53;;;;;;;;;;;18.80;71.20;;;;;;5041443;27;91007;-53
2022/10/09 11:08:37;;;;;;;;;;;18.90;72.20;;;;;;5042871;27;90384;-52
2022/10/09 11:11:21;;;;;;;;;;;19.00;73.90;;;;;;5041923;27;90880;-50
2022/10/09 11:13:46;;;;;;;;;;;19.00;78.40;;;;;;5042185;27;90020;-50
2022/10/09 11:16:22;;;;;;;;;;;19.10;78.50;;;;;;5044957;27;90979;-52
2022/10/09 11:18:50;;;;;;;;;;;19.10;80.80;;;;;;5047125;27;90636;-52
2022/10/09 11:21:28;;;;;;;;;;;19.10;83.00;;;;;;5050900;27;91138;-53
2022/10/09 11:23:56;;;;;;;;;;;19.10;84.50;;;;;;5057102;27;89857;-51
2022/10/09 11:26:41;;;;;;;;;;;19.10;85.70;;;;;;5043681;27;90341;-49
2022/10/09 11:29:25;;;;;;;;;;;19.10;86.30;;;;;;5036043;27;91947;-49
2022/10/09 11:32:20;;;;;;;;;;;19.10;85.30;;;;;;5039727;27;91436;-49
2022/10/09 11:34:49;;;;;;;;;;;19.10;84.80;;;;;;4972462;27;90196;-53
2022/10/09 11:37:21;;;;;;;;;;;19.10;84.30;;;;;;5048187;27;90780;-52
2022/10/09 11:39:46;;;;;;;;;;;19.20;83.40;;;;;;5045805;27;91290;-52
2022/10/09 11:42:15;;;;;;;;;;;19.10;83.60;;;;;;5053804;27;89898;-49
2022/10/09 11:44:48;;;;;;;;;;;19.20;82.90;;;;;;5045248;27;90988;-51
2022/10/09 11:47:18;;;;;;;;;;;19.10;82.50;;;;;;5043480;27;91333;-51
2022/10/09 11:49:57;;;;;;;;;;;19.10;82.50;;;;;;5044987;27;91016;-52
2022/10/09 11:52:28;;;;;;;;;;;19.10;82.20;;;;;;5025668;27;92868;-51
2022/10/09 11:54:54;;;;;;;;;;;19.20;81.60;;;;;;5042823;27;89633;-53
2022/10/09 11:57:27;;;;;;;;;;;19.20;81.10;;;;;;5055036;27;97306;-50
2022/10/09 12:00:02;;;;;;;;;;;19.10;80.50;;;;;;5046682;27;90821;-47
2022/10/09 12:02:29;;;;;;;;;;;19.20;79.60;;;;;;5037335;27;90593;-48
2022/10/09 12:04:55;;;;;;;;;;;19.20;79.50;;;;;;5036091;27;90064;-51
2022/10/09 12:07:47;;;;;;;;;;;19.20;79.80;;;;;;5052573;27;93405;-52
2022/10/09 12:10:30;;;;;;;;;;;19.20;78.70;;;;;;5042825;27;90758;-53
2022/10/09 12:12:58;;;;;;;;;;;19.20;78.50;;;;;;5050115;27;89529;-52
2022/10/09 12:15:26;;;;;;;;;;;19.20;78.10;;;;;;5040928;27;89213;-50
2022/10/09 12:17:51;;;;;;;;;;;19.20;78.10;;;;;;5036189;27;91061;-51
2022/10/09 12:20:19;;;;;;;;;;;19.20;77.80;;;;;;5045735;27;91003;-47
2022/10/09 12:22:48;;;;;;;;;;;19.20;77.50;;;;;;5051330;27;93488;-48
2022/10/09 12:25:23;;;;;;;;;;;19.20;77.40;;;;;;5038874;27;89569;-52
2022/10/09 12:27:51;;;;;;;;;;;19.20;77.30;;;;;;5040806;27;91407;-53
2022/10/09 12:30:18;;;;;;;;;;;19.30;77.00;;;;;;5044815;27;89611;-49
2022/10/09 12:32:46;;;;;;;;;;;19.20;76.80;;;;;;5045376;27;90141;-48
2022/10/09 12:35:19;;;;;;;;;;;19.30;76.60;;;;;;5046485;27;90304;-51
2022/10/09 12:37:44;;;;;;;;;;;19.30;76.30;;;;;;5044008;27;91181;-47
2022/10/09 12:40:14;;;;;;;;;;;19.30;76.40;;;;;;5047768;27;89509;-51
2022/10/09 12:42:40;;;;;;;;;;;19.30;75.80;;;;;;5054332;27;90635;-51
2022/10/09 12:45:13;;;;;;;;;;;19.30;75.60;;;;;;5047263;27;90052;-46
2022/10/09 12:47:39;;;;;;;;;;;19.30;75.30;;;;;;5048582;27;91775;-47
2022/10/09 12:50:10;;;;;;;;;;;19.30;75.30;;;;;;5040268;27;89919;-47
2022/10/09 12:52:45;;;;;;;;;;;19.40;75.10;;;;;;5045011;27;89901;-54
2022/10/09 12:55:37;;;;;;;;;;;19.40;74.70;;;;;;5046462;27;90267;-49
2022/10/09 12:58:07;;;;;;;;;;;19.40;74.30;;;;;;5034311;27;93859;-46
2022/10/09 13:00:34;;;;;;;;;;;19.40;74.20;;;;;;5039688;27;90070;-50
2022/10/09 13:03:00;;;;;;;;;;;19.40;73.80;;;;;;5043116;27;89566;-49
2022/10/09 13:05:39;;;;;;;;;;;19.40;73.70;;;;;;5041499;27;89849;-48
2022/10/09 13:08:05;;;;;;;;;;;19.40;73.40;;;;;;5044276;27;89969;-52
2022/10/09 13:10:31;;;;;;;;;;;19.40;73.70;;;;;;5044512;27;90389;-51
2022/10/09 13:12:57;;;;;;;;;;;19.40;73.30;;;;;;5045219;27;99260;-48
2022/10/09 13:15:23;;;;;;;;;;;19.40;73.30;;;;;;5042829;27;91861;-54
2022/10/09 13:17:48;;;;;;;;;;;19.50;73.40;;;;;;5022738;27;95542;-53
2022/10/09 13:20:14;;;;;;;;;;;19.50;73.20;;;;;;5034870;27;94994;-48
2022/10/09 13:22:40;;;;;;;;;;;19.50;73.10;;;;;;5049576;27;90860;-51
2022/10/09 13:25:08;;;;;;;;;;;19.60;73.00;;;;;;5036740;27;90129;-52
2022/10/09 13:27:36;;;;;;;;;;;19.60;72.60;;;;;;5049900;27;90155;-49
2022/10/09 13:30:03;;;;;;;;;;;19.60;72.10;;;;;;5019708;27;89257;-51
2022/10/09 13:32:28;;;;;;;;;;;19.70;72.00;;;;;;5044673;27;90732;-51
2022/10/09 13:34:54;;;;;;;;;;;19.70;71.90;;;;;;5024295;27;89787;-49
2022/10/09 13:37:22;;;;;;;;;;;19.60;71.70;;;;;;5022716;27;91669;-53
2022/10/09 13:39:58;;;;;;;;;;;19.60;71.60;;;;;;5040354;27;90112;-51
2022/10/09 13:42:29;;;;;;;;;;;19.70;71.50;;;;;;5031551;27;89963;-49
2022/10/09 13:44:55;;;;;;;;;;;19.70;71.50;;;;;;5038808;27;92396;-51
2022/10/09 13:47:22;;;;;;;;;;;19.70;71.30;;;;;;5046763;27;89788;-48
2022/10/09 13:49:49;;;;;;;;;;;19.70;71.80;;;;;;5043064;27;89978;-53
2022/10/09 13:52:14;;;;;;;;;;;19.70;71.00;;;;;;5044488;27;90260;-47
2022/10/09 13:54:40;;;;;;;;;;;19.70;70.90;;;;;;5033611;27;89157;-54
2022/10/09 13:57:06;;;;;;;;;;;19.70;70.70;;;;;;5042360;27;90124;-49
2022/10/09 13:59:31;;;;;;;;;;;19.80;70.60;;;;;;5039233;27;90284;-48
2022/10/09 14:01:57;;;;;;;;;;;19.80;70.50;;;;;;5040705;27;90949;-49
2022/10/09 14:04:23;;;;;;;;;;;19.80;70.10;;;;;;5046461;27;90926;-52
2022/10/09 14:06:49;;;;;;;;;;;19.80;69.80;;;;;;5044186;27;89820;-53
2022/10/09 14:09:14;;;;;;;;;;;19.80;69.40;;;;;;5031909;27;90684;-52
2022/10/09 14:11:40;;;;;;;;;;;19.80;68.90;;;;;;5043568;27;90265;-53
2022/10/09 14:14:05;;;;;;;;;;;19.90;68.60;;;;;;5049744;27;90342;-47
2022/10/09 14:16:31;;;;;;;;;;;19.80;68.20;;;;;;5045094;27;89566;-51
2022/10/09 14:18:58;;;;;;;;;;;19.90;67.90;;;;;;5034817;27;91032;-51
2022/10/09 14:21:24;;;;;;;;;;;19.90;67.50;;;;;;5027366;27;90132;-53
2022/10/09 14:23:56;;;;;;;;;;;19.80;67.30;;;;;;5044343;27;89817;-50